Time;durP1;ratioP1;P1;durP2;ratioP2;P2;SDS_P1;SDS_P2;PMS_P1;PMS_P2;Temp;Humidity;BMP_temperature;BMP_pressure;BME280_temperature;BME280_humidity;BME280_pressure;Samples;Min_cycle;Max_cycle;Signal;HPM_P1;HPM_P2
2021/04/05 00:01:24;;;;;;;12.60;5.22;;;4.60;54.20;;;;;;5032521;28;20022;-75
2021/04/05 00:03:50;;;;;;;9.95;5.15;;;4.60;54.50;;;;;;5032188;28;20091;-76
2021/04/05 00:06:18;;;;;;;9.07;4.45;;;4.60;54.70;;;;;;5032381;28;20095;-75
2021/04/05 00:08:44;;;;;;;16.08;5.00;;;4.60;54.60;;;;;;5032145;28;20045;-77
2021/04/05 00:11:10;;;;;;;10.85;4.70;;;4.70;54.70;;;;;;5032203;28;20447;-76
2021/04/05 00:13:38;;;;;;;11.88;5.07;;;4.70;54.70;;;;;;5032905;28;20120;-76
2021/04/05 00:16:04;;;;;;;10.63;4.50;;;4.70;54.60;;;;;;5036334;28;20078;-78
2021/04/05 00:18:29;;;;;;;9.60;4.75;;;4.80;54.60;;;;;;5036116;28;20033;-75
2021/04/05 00:21:06;;;;;;;10.45;4.45;;;4.70;54.60;;;;;;5036494;28;20022;-76
2021/04/05 00:23:31;;;;;;;14.98;6.28;;;4.70;54.90;;;;;;5036044;28;20427;-77
2021/04/05 00:25:57;;;;;;;12.15;5.78;;;4.70;55.40;;;;;;5036370;28;20065;-76
2021/04/05 00:28:23;;;;;;;12.48;6.07;;;4.60;55.80;;;;;;5036107;28;20560;-78
2021/04/05 00:30:48;;;;;;;15.30;6.10;;;4.60;55.90;;;;;;5035885;28;20454;-75
2021/04/05 00:33:14;;;;;;;10.13;4.82;;;4.50;56.10;;;;;;5036129;28;20492;-76
2021/04/05 00:35:40;;;;;;;13.02;4.97;;;4.50;56.30;;;;;;5035958;28;20100;-78
2021/04/05 00:38:09;;;;;;;10.43;4.53;;;4.40;56.40;;;;;;5036109;28;20021;-75
2021/04/05 00:40:47;;;;;;;14.98;5.35;;;4.40;56.60;;;;;;5035896;28;20025;-78
2021/04/05 00:43:15;;;;;;;10.30;5.05;;;4.30;56.70;;;;;;5018106;28;20048;-76
2021/04/05 00:45:41;;;;;;;9.70;5.05;;;4.40;56.60;;;;;;5035597;28;20034;-78
2021/04/05 00:48:07;;;;;;;12.73;5.55;;;4.40;56.40;;;;;;5035908;28;20049;-75
2021/04/05 00:50:33;;;;;;;11.57;5.18;;;4.40;56.00;;;;;;5035446;28;20036;-76
2021/04/05 00:53:00;;;;;;;10.10;4.60;;;4.40;56.00;;;;;;5017975;28;20022;-78
2021/04/05 00:55:27;;;;;;;11.23;4.88;;;4.40;56.20;;;;;;5035710;28;20112;-78
2021/04/05 00:57:55;;;;;;;10.10;4.55;;;4.30;56.50;;;;;;5035715;28;20362;-76
2021/04/05 01:00:29;;;;;;;11.35;5.07;;;4.40;56.60;;;;;;5035730;28;20026;-76
2021/04/05 01:02:54;;;;;;;7.65;4.03;;;4.50;56.50;;;;;;5035624;28;20029;-77
2021/04/05 01:05:20;;;;;;;14.95;4.60;;;4.50;56.30;;;;;;5035480;28;20371;-79
2021/04/05 01:07:46;;;;;;;14.95;4.82;;;4.60;56.00;;;;;;5035215;28;20041;-77
2021/04/05 01:10:13;;;;;;;10.55;4.05;;;4.60;55.90;;;;;;5035465;28;20032;-76
2021/04/05 01:12:39;;;;;;;10.82;4.00;;;4.60;56.00;;;;;;5035319;28;20087;-77
2021/04/05 01:15:10;;;;;;;9.65;4.65;;;4.60;56.10;;;;;;5035407;28;20398;-77
2021/04/05 01:17:36;;;;;;;12.50;5.55;;;4.60;56.10;;;;;;5035232;28;20112;-78
2021/04/05 01:20:22;;;;;;;10.38;5.10;;;4.50;56.40;;;;;;5035196;28;20490;-77
2021/04/05 01:22:50;;;;;;;15.30;6.07;;;4.40;57.10;;;;;;5034968;28;20053;-78
2021/04/05 01:25:19;;;;;;;15.80;6.10;;;4.30;57.30;;;;;;5033699;28;20050;-77
2021/04/05 01:27:45;;;;;;;13.07;5.95;;;4.40;57.40;;;;;;5035042;28;20430;-78
2021/04/05 01:30:27;;;;;;;9.88;4.85;;;4.50;57.40;;;;;;5035137;28;20441;-78
2021/04/05 01:33:17;;;;;;;7.63;3.85;;;4.50;57.10;;;;;;5035249;28;20316;-76
2021/04/05 01:36:00;;;;;;;9.10;4.47;;;4.50;56.80;;;;;;5034864;28;20417;-76
2021/04/05 01:38:28;;;;;;;11.65;4.93;;;4.50;56.80;;;;;;5034803;28;20037;-77
2021/04/05 01:41:06;;;;;;;10.25;4.40;;;4.30;57.10;;;;;;5016895;28;20051;-76
2021/04/05 01:43:32;;;;;;;12.15;5.22;;;4.30;57.30;;;;;;5034850;28;20479;-77
2021/04/05 01:45:59;;;;;;;8.43;4.18;;;4.30;57.30;;;;;;5034715;28;20041;-77
2021/04/05 01:48:26;;;;;;;8.00;4.70;;;4.30;57.50;;;;;;5034715;28;20048;-77
2021/04/05 01:51:03;;;;;;;10.88;4.60;;;4.40;57.50;;;;;;5034691;28;20026;-78
2021/04/05 01:53:29;;;;;;;8.35;4.47;;;4.30;57.60;;;;;;5034751;28;20029;-75
2021/04/05 01:55:58;;;;;;;9.65;4.47;;;4.20;57.80;;;;;;5034619;28;20029;-77
2021/04/05 01:58:25;;;;;;;8.88;3.92;;;4.20;58.10;;;;;;5034513;28;20561;-77
2021/04/05 02:00:51;;;;;;;10.80;4.10;;;4.20;58.30;;;;;;5034586;28;20044;-77
2021/04/05 02:03:17;;;;;;;10.15;4.63;;;4.20;58.50;;;;;;5034634;28;20025;-78
2021/04/05 02:06:04;;;;;;;9.80;4.15;;;4.20;58.40;;;;;;5016640;28;20079;-78
2021/04/05 02:08:31;;;;;;;9.38;4.57;;;4.30;58.40;;;;;;5034015;28;20041;-77
2021/04/05 02:11:09;;;;;;;11.38;4.47;;;4.30;58.40;;;;;;5034208;28;20025;-76
2021/04/05 02:13:35;;;;;;;10.15;4.60;;;4.30;58.40;;;;;;5034299;28;20046;-77
2021/04/05 02:16:02;;;;;;;8.70;4.78;;;4.20;58.40;;;;;;5034363;28;20048;-76
2021/04/05 02:18:27;;;;;;;11.77;5.32;;;4.00;58.50;;;;;;5034052;28;20048;-77
2021/04/05 02:20:54;;;;;;;12.30;5.40;;;3.90;59.00;;;;;;5034210;28;20021;-76
2021/04/05 02:23:22;;;;;;;8.63;4.90;;;3.70;59.70;;;;;;5034121;28;20026;-76
2021/04/05 02:26:08;;;;;;;11.52;4.95;;;3.70;60.40;;;;;;5033961;28;20033;-76
2021/04/05 02:28:39;;;;;;;9.30;4.40;;;3.70;61.00;;;;;;5015906;28;20060;-75
2021/04/05 02:31:05;;;;;;;9.27;4.68;;;3.70;61.40;;;;;;5034030;28;20443;-77
2021/04/05 02:33:36;;;;;;;11.93;5.20;;;3.70;61.70;;;;;;5033704;28;20030;-78
2021/04/05 02:36:02;;;;;;;9.73;4.88;;;3.70;61.90;;;;;;5033788;28;20028;-76
2021/04/05 02:38:28;;;;;;;9.85;4.90;;;3.70;62.00;;;;;;5033450;28;20026;-76
2021/04/05 02:40:53;;;;;;;7.45;4.40;;;3.60;62.50;;;;;;5033677;28;20041;-75
2021/04/05 02:43:19;;;;;;;13.02;5.00;;;3.70;61.60;;;;;;5033480;28;20106;-77
2021/04/05 02:45:46;;;;;;;9.73;4.65;;;3.60;61.60;;;;;;5015798;28;20039;-77
2021/04/05 02:48:13;;;;;;;7.97;3.88;;;3.70;61.70;;;;;;5015663;28;20022;-76
2021/04/05 02:50:39;;;;;;;10.07;4.13;;;3.70;62.30;;;;;;5033621;28;20021;-75
2021/04/05 02:53:07;;;;;;;9.38;3.88;;;3.70;61.70;;;;;;5015808;28;20673;-77
2021/04/05 02:55:35;;;;;;;9.23;3.75;;;3.80;61.70;;;;;;5015608;28;20413;-78
2021/04/05 02:58:04;;;;;;;11.20;4.35;;;3.80;61.70;;;;;;5015621;28;20490;-76
2021/04/05 03:00:30;;;;;;;11.15;4.53;;;3.80;61.90;;;;;;5033372;28;20026;-76
2021/04/05 03:02:57;;;;;;;9.10;4.07;;;3.80;61.70;;;;;;5015320;28;20027;-76
2021/04/05 03:05:25;;;;;;;7.70;3.55;;;3.80;61.90;;;;;;5033280;28;20477;-77
2021/04/05 03:07:52;;;;;;;10.27;4.22;;;3.70;62.10;;;;;;5015232;28;20049;-77
2021/04/05 03:10:22;;;;;;;10.82;4.30;;;3.80;61.90;;;;;;5015249;28;20064;-77
2021/04/05 03:12:50;;;;;;;11.90;4.35;;;3.70;61.80;;;;;;5015164;28;20259;-77
2021/04/05 03:15:16;;;;;;;10.27;4.28;;;3.80;61.80;;;;;;5015385;28;20054;-77
2021/04/05 03:17:42;;;;;;;12.55;4.13;;;3.80;61.70;;;;;;5033171;28;20030;-77
2021/04/05 03:20:17;;;;;;;10.20;4.75;;;3.80;61.80;;;;;;5015345;28;20025;-77
2021/04/05 03:22:45;;;;;;;7.95;2.83;;;3.80;61.70;;;;;;5015261;28;20116;-77
2021/04/05 03:25:19;;;;;;;8.45;3.65;;;3.90;62.50;;;;;;5015122;28;20037;-78
2021/04/05 03:27:46;;;;;;;13.18;4.70;;;3.90;61.50;;;;;;5015901;28;20634;-77
2021/04/05 03:30:15;;;;;;;8.95;3.72;;;4.00;61.40;;;;;;5015501;28;20086;-78
2021/04/05 03:32:43;;;;;;;11.68;3.80;;;4.00;61.20;;;;;;5015440;28;20102;-78
2021/04/05 03:35:14;;;;;;;8.73;4.18;;;4.00;60.70;;;;;;5016518;28;20044;-77
2021/04/05 03:37:42;;;;;;;9.63;4.20;;;4.00;60.70;;;;;;5016832;28;20183;-78
2021/04/05 03:40:09;;;;;;;7.57;3.65;;;4.00;61.10;;;;;;5033625;28;20029;-78
2021/04/05 03:42:55;;;;;;;10.35;3.70;;;4.00;61.10;;;;;;5014869;28;20040;-78
2021/04/05 03:45:42;;;;;;;12.13;3.97;;;4.00;61.10;;;;;;5014918;28;20029;-78
2021/04/05 03:48:37;;;;;;;7.47;3.60;;;4.00;60.90;;;;;;5013903;28;20022;-76
2021/04/05 03:51:11;;;;;;;6.60;3.78;;;4.10;60.60;;;;;;5014738;28;20022;-77
2021/04/05 03:53:56;;;;;;;8.68;3.58;;;4.00;60.20;;;;;;5014792;28;20418;-78
2021/04/05 03:56:51;;;;;;;7.95;3.90;;;4.10;60.30;;;;;;5015163;28;20018;-77
2021/04/05 03:59:33;;;;;;;6.43;3.63;;;4.00;60.20;;;;;;5016576;28;20138;-77
2021/04/05 04:02:11;;;;;;;7.85;3.78;;;3.90;60.50;;;;;;5015581;28;20064;-77
2021/04/05 04:04:46;;;;;;;14.88;3.90;;;4.00;60.60;;;;;;5014667;28;20045;-78
2021/04/05 04:07:30;;;;;;;12.57;3.78;;;3.90;60.90;;;;;;5037287;28;20025;-76
2021/04/05 04:09:57;;;;;;;6.32;3.30;;;3.90;61.10;;;;;;5015744;28;20025;-77
2021/04/05 04:12:24;;;;;;;7.72;4.10;;;3.90;61.10;;;;;;5016798;28;20032;-77
2021/04/05 04:14:50;;;;;;;17.95;3.22;;;3.90;61.10;;;;;;5026619;28;20025;-77
2021/04/05 04:17:17;;;;;;;9.45;3.40;;;3.80;61.10;;;;;;5021606;28;20111;-77
2021/04/05 04:19:44;;;;;;;7.90;3.55;;;3.90;61.10;;;;;;5021605;28;20022;-77
2021/04/05 04:22:12;;;;;;;7.05;4.15;;;3.90;61.10;;;;;;5020391;28;20142;-78
2021/04/05 04:24:38;;;;;;;10.10;4.18;;;3.90;61.00;;;;;;5020300;28;20034;-78
2021/04/05 04:27:05;;;;;;;7.95;2.95;;;3.80;60.80;;;;;;5022643;28;20030;-79
2021/04/05 04:29:32;;;;;;;8.93;3.85;;;3.90;61.00;;;;;;5019602;28;20032;-74
2021/04/05 04:31:58;;;;;;;7.57;3.47;;;4.00;61.00;;;;;;5038061;28;20075;-76
2021/04/05 04:34:24;;;;;;;10.43;4.45;;;4.00;60.80;;;;;;5020330;28;20036;-75
2021/04/05 04:36:51;;;;;;;7.65;3.63;;;3.90;60.70;;;;;;5017093;28;20112;-78
2021/04/05 04:39:18;;;;;;;10.68;4.10;;;3.90;60.90;;;;;;5016995;28;20033;-77
2021/04/05 04:41:46;;;;;;;7.97;3.60;;;3.90;60.90;;;;;;5016396;28;20090;-76
2021/04/05 04:44:13;;;;;;;12.85;3.78;;;4.00;61.10;;;;;;5016650;28;20083;-76
2021/04/05 04:46:39;;;;;;;9.18;4.15;;;4.00;61.20;;;;;;5016847;28;20028;-78
2021/04/05 04:49:07;;;;;;;10.80;3.30;;;4.00;61.20;;;;;;5017149;28;20429;-77
2021/04/05 04:51:33;;;;;;;12.50;4.05;;;4.00;60.90;;;;;;5016589;28;20021;-74
2021/04/05 04:54:01;;;;;;;14.05;4.53;;;4.10;60.60;;;;;;5015786;28;20022;-78
2021/04/05 04:56:27;;;;;;;10.57;3.88;;;4.00;60.20;;;;;;5016904;28;20053;-75
2021/04/05 04:59:01;;;;;;;8.95;3.88;;;4.00;60.30;;;;;;5041776;28;20025;-77
2021/04/05 05:01:28;;;;;;;8.63;3.40;;;4.00;60.30;;;;;;5036812;28;20036;-78
2021/04/05 05:04:16;;;;;;;10.30;4.57;;;4.10;60.10;;;;;;5037313;28;20044;-79
2021/04/05 05:06:42;;;;;;;10.60;3.70;;;4.10;59.80;;;;;;5026868;28;20052;-78
2021/04/05 05:09:08;;;;;;;8.20;3.75;;;4.20;59.70;;;;;;5024867;28;20040;-78
2021/04/05 05:11:35;;;;;;;8.38;4.13;;;4.10;59.80;;;;;;5024275;28;20394;-76
2021/04/05 05:14:01;;;;;;;9.48;3.83;;;4.10;59.70;;;;;;5020780;28;20029;-78
2021/04/05 05:16:27;;;;;;;8.00;3.85;;;4.20;59.50;;;;;;5036976;28;20104;-74
2021/04/05 05:19:00;;;;;;;11.52;3.90;;;4.30;59.20;;;;;;5018847;28;20378;-77
2021/04/05 05:21:46;;;;;;;10.73;4.07;;;4.40;58.90;;;;;;5017942;28;20394;-78
2021/04/05 05:24:19;;;;;;;9.32;4.28;;;4.50;58.50;;;;;;5036350;28;20049;-78
2021/04/05 05:26:46;;;;;;;8.60;3.88;;;4.60;58.00;;;;;;5017973;28;20413;-78
2021/04/05 05:29:13;;;;;;;6.63;3.75;;;4.60;57.50;;;;;;5018245;28;20061;-79
2021/04/05 05:31:41;;;;;;;9.27;3.90;;;4.70;57.40;;;;;;5018200;28;20413;-78
2021/04/05 05:34:12;;;;;;;9.88;3.72;;;4.70;57.30;;;;;;5035553;28;20228;-77
2021/04/05 05:36:39;;;;;;;7.82;3.85;;;4.80;56.90;;;;;;5018522;28;20022;-77
2021/04/05 05:39:05;;;;;;;9.65;4.30;;;4.90;56.70;;;;;;5017855;28;20025;-77
2021/04/05 05:41:40;;;;;;;8.80;4.22;;;5.00;56.40;;;;;;5035688;28;20097;-77
2021/04/05 05:44:31;;;;;;;11.27;4.43;;;5.20;56.10;;;;;;5017859;28;20033;-77
2021/04/05 05:47:06;;;;;;;5.65;3.30;;;5.30;55.80;;;;;;5017848;28;20021;-79
2021/04/05 05:49:36;;;;;;;4.85;2.40;;;5.40;55.20;;;;;;5017554;28;20056;-77
2021/04/05 05:52:23;;;;;;;11.57;3.70;;;5.50;54.80;;;;;;5017383;28;20450;-78
2021/04/05 05:55:20;;;;;;;6.40;2.85;;;5.60;54.00;;;;;;5017551;28;20026;-76
2021/04/05 05:58:11;;;;;;;8.23;3.28;;;5.70;53.80;;;;;;5017267;28;20025;-77
2021/04/05 06:01:07;;;;;;;8.98;3.13;;;5.80;53.40;;;;;;5017302;28;20030;-77
2021/04/05 06:03:56;;;;;;;6.90;3.00;;;6.00;52.10;;;;;;4991777;28;20485;-80
2021/04/05 06:06:44;;;;;;;7.82;3.17;;;6.30;52.40;;;;;;5017326;28;20120;-79
2021/04/05 06:09:20;;;;;;;11.50;3.33;;;6.60;53.70;;;;;;5017336;28;20414;-80
2021/04/05 06:12:03;;;;;;;9.02;3.65;;;7.00;52.60;;;;;;5016554;28;20351;-80
2021/04/05 06:14:49;;;;;;;8.18;3.30;;;7.20;52.20;;;;;;5017305;28;20421;-81
2021/04/05 06:17:22;;;;;;;;;;;7.50;49.80;;;;;;5035380;28;20030;-82
2021/04/05 06:19:49;;;;;;;20.98;4.22;;;7.60;49.20;;;;;;5017387;28;19916;-82
2021/04/05 06:22:32;;;;;;;21.60;4.72;;;7.90;50.10;;;;;;5035312;28;20049;-80
2021/04/05 06:25:02;;;;;;;12.77;3.42;;;8.60;54.30;;;;;;5035210;28;20037;-83
2021/04/05 06:27:34;;;;;;;16.30;3.92;;;9.00;48.40;;;;;;5017431;28;20045;-79
2021/04/05 06:30:10;;;;;;;7.40;2.90;;;9.40;47.80;;;;;;5035428;28;20018;-82
2021/04/05 06:33:05;;;;;;;8.75;2.95;;;9.80;45.50;;;;;;5017361;28;20623;-82
2021/04/05 06:35:55;;;;;;;7.15;3.00;;;9.90;41.90;;;;;;5034940;28;20018;-82
2021/04/05 06:38:27;;;;;;;9.50;3.30;;;10.00;40.00;;;;;;5016902;28;20031;-83
2021/04/05 06:40:56;;;;;;;6.55;3.20;;;10.20;40.20;;;;;;5017058;28;20029;-76
2021/04/05 06:43:48;;;;;;;9.52;3.13;;;10.20;38.80;;;;;;5035316;28;20539;-77
2021/04/05 06:46:27;;;;;;;7.80;3.05;;;9.90;37.90;;;;;;5007794;28;20045;-78
2021/04/05 06:49:02;;;;;;;7.63;3.25;;;9.50;38.00;;;;;;5001987;28;20494;-77
2021/04/05 06:51:46;;;;;;;10.65;3.17;;;9.40;38.20;;;;;;5015286;28;20037;-77
2021/04/05 06:54:30;;;;;;;7.18;2.83;;;9.40;38.40;;;;;;5030972;28;20026;-78
2021/04/05 06:57:12;;;;;;;11.07;3.25;;;9.50;38.70;;;;;;5029885;28;20391;-78
2021/04/05 07:00:21;;;;;;;8.45;3.08;;;9.50;38.80;;;;;;5033872;28;20018;-77
2021/04/05 07:03:12;;;;;;;10.60;4.20;;;9.50;38.80;;;;;;5014370;28;20105;-76
2021/04/05 07:05:56;;;;;;;10.45;3.08;;;9.60;38.40;;;;;;5030130;28;20137;-75
2021/04/05 07:08:34;;;;;;;11.85;3.17;;;9.50;38.10;;;;;;5014961;28;20048;-77
2021/04/05 07:11:25;;;;;;;8.77;3.10;;;9.50;38.20;;;;;;4997095;28;20053;-77
2021/04/05 07:14:12;;;;;;;8.52;3.47;;;9.50;38.80;;;;;;5029468;28;20422;-78
2021/04/05 07:16:54;;;;;;;9.35;3.30;;;9.60;38.20;;;;;;5030183;28;20030;-77
2021/04/05 07:19:46;;;;;;;6.95;2.92;;;9.70;38.20;;;;;;5030363;28;20048;-79
2021/04/05 07:22:28;;;;;;;8.05;3.50;;;9.80;38.10;;;;;;4997300;28;20483;-78
2021/04/05 07:25:21;;;;;;;11.40;3.13;;;9.80;37.90;;;;;;5030435;28;20121;-77
2021/04/05 07:27:50;;;;;;;9.40;3.15;;;9.80;37.80;;;;;;5015516;28;20105;-77
2021/04/05 07:30:23;;;;;;;8.60;2.95;;;9.90;38.00;;;;;;5030445;28;20028;-77
2021/04/05 07:33:16;;;;;;;7.93;3.00;;;9.90;37.70;;;;;;5020616;28;20104;-78
2021/04/05 07:36:09;;;;;;;5.65;2.58;;;9.90;37.70;;;;;;5015459;28;20022;-77
2021/04/05 07:39:01;;;;;;;9.63;2.90;;;10.00;37.60;;;;;;5032645;28;20057;-78
2021/04/05 07:41:29;;;;;;;9.45;3.33;;;10.00;37.40;;;;;;5030308;28;20084;-75
2021/04/05 07:44:36;;;;;;;11.00;3.78;;;10.00;37.50;;;;;;5015275;28;20029;-75
2021/04/05 07:47:13;;;;;;;9.60;3.65;;;10.00;37.70;;;;;;5014149;28;20121;-77
2021/04/05 07:49:45;;;;;;;7.70;3.42;;;10.00;37.70;;;;;;5014250;28;20022;-76
2021/04/05 07:52:20;;;;;;;9.95;3.45;;;10.10;38.10;;;;;;5013886;28;20186;-74
2021/04/05 07:54:46;;;;;;;7.15;3.15;;;10.20;38.10;;;;;;5028590;28;20029;-78
2021/04/05 07:57:27;;;;;;;7.57;3.40;;;10.20;38.10;;;;;;5029664;28;20022;-77
2021/04/05 07:59:58;;;;;;;11.18;4.35;;;10.30;38.10;;;;;;5029002;28;20022;-76
2021/04/05 08:02:33;;;;;;;10.65;3.50;;;10.20;38.10;;;;;;5013768;28;20096;-74
2021/04/05 08:05:26;;;;;;;10.57;3.60;;;10.10;38.50;;;;;;5028797;28;20049;-78
2021/04/05 08:08:34;;;;;;;14.73;4.03;;;10.10;38.50;;;;;;5028840;28;20081;-76
2021/04/05 08:11:04;;;;;;;9.82;3.90;;;10.00;38.80;;;;;;5019025;28;20095;-76
2021/04/05 08:13:47;;;;;;;8.45;3.97;;;9.90;39.30;;;;;;5022790;28;20022;-76
2021/04/05 08:16:27;;;;;;;10.32;3.63;;;9.90;39.60;;;;;;5017240;28;20068;-76
2021/04/05 08:19:12;;;;;;;8.43;4.05;;;9.90;39.90;;;;;;5028567;28;20033;-75
2021/04/05 08:22:12;;;;;;;13.50;4.77;;;9.90;40.20;;;;;;5013100;28;20022;-76
2021/04/05 08:25:05;;;;;;;13.38;4.55;;;9.90;40.40;;;;;;4961893;28;20461;-76
2021/04/05 08:27:50;;;;;;;9.43;3.38;;;9.80;40.70;;;;;;5028210;28;20021;-76
2021/04/05 08:30:25;;;;;;;10.52;4.20;;;9.90;41.00;;;;;;4995705;28;20034;-75
2021/04/05 08:33:01;;;;;;;11.73;4.00;;;10.00;41.10;;;;;;5012820;28;20045;-73
2021/04/05 08:35:33;;;;;;;10.88;3.78;;;10.00;41.30;;;;;;5014911;28;20022;-75
2021/04/05 08:38:23;;;;;;;13.15;4.45;;;9.90;41.40;;;;;;5017127;28;20030;-74
2021/04/05 08:40:59;;;;;;;11.93;4.22;;;9.80;41.40;;;;;;5016898;28;20022;-77
2021/04/05 08:43:46;;;;;;;10.38;3.70;;;9.90;41.50;;;;;;5017026;28;20022;-76
2021/04/05 08:46:18;;;;;;;9.70;3.60;;;9.80;41.60;;;;;;5016793;28;20426;-77
2021/04/05 08:48:51;;;;;;;9.00;5.07;;;9.90;41.90;;;;;;5032143;28;20125;-76
2021/04/05 08:51:25;;;;;;;13.38;4.22;;;10.00;41.90;;;;;;4998745;28;20490;-77
2021/04/05 08:53:56;;;;;;;10.33;4.47;;;10.20;41.80;;;;;;5016822;28;20030;-77
2021/04/05 08:56:26;;;;;;;11.82;4.68;;;10.10;41.70;;;;;;5016719;28;20029;-77
2021/04/05 08:59:16;;;;;;;12.93;4.32;;;10.10;41.60;;;;;;5016738;28;20587;-76
2021/04/05 09:01:57;;;;;;;13.35;3.88;;;10.20;41.60;;;;;;5016575;28;20022;-78
2021/04/05 09:04:24;;;;;;;15.05;4.28;;;10.10;41.80;;;;;;5016642;28;20471;-76
2021/04/05 09:07:28;;;;;;;11.65;3.50;;;10.20;42.10;;;;;;5015213;28;20548;-73
2021/04/05 09:09:59;;;;;;;11.55;4.10;;;10.40;42.00;;;;;;4997785;28;20445;-77
2021/04/05 09:12:26;;;;;;;9.63;3.65;;;10.30;41.80;;;;;;5003500;28;20037;-76
2021/04/05 09:14:55;;;;;;;7.85;3.35;;;10.30;41.90;;;;;;5001467;28;20045;-76
2021/04/05 09:17:33;;;;;;;11.82;3.67;;;10.40;41.50;;;;;;5017388;28;20022;-76
2021/04/05 09:20:27;;;;;;;8.35;3.13;;;10.40;41.40;;;;;;4998850;28;20029;-75
2021/04/05 09:23:18;;;;;;;9.77;3.92;;;10.50;41.60;;;;;;4998822;28;20418;-75
2021/04/05 09:26:07;;;;;;;8.25;3.10;;;10.60;41.80;;;;;;5016166;28;20050;-76
2021/04/05 09:28:49;;;;;;;9.77;3.40;;;10.70;41.80;;;;;;5015919;28;20017;-76
2021/04/05 09:31:33;;;;;;;8.57;3.42;;;10.70;41.60;;;;;;5016004;28;20386;-77
2021/04/05 09:34:07;;;;;;;10.15;4.35;;;10.70;41.40;;;;;;5015700;28;20018;-76
2021/04/05 09:37:11;;;;;;;8.60;3.90;;;10.70;41.10;;;;;;5015743;28;20061;-76
2021/04/05 09:40:11;;;;;;;11.05;3.67;;;10.90;41.20;;;;;;5015757;28;20410;-76
2021/04/05 09:43:07;;;;;;;10.50;3.45;;;11.00;41.00;;;;;;4997856;28;20036;-75
2021/04/05 09:45:49;;;;;;;8.05;3.70;;;11.00;40.70;;;;;;4997809;28;20041;-77
2021/04/05 09:48:40;;;;;;;7.20;3.45;;;11.00;40.40;;;;;;5030396;28;20022;-78
2021/04/05 09:51:08;;;;;;;11.65;3.67;;;10.90;39.90;;;;;;4997823;28;20022;-76
2021/04/05 09:54:02;;;;;;;11.77;3.50;;;10.80;39.70;;;;;;5015507;28;20026;-77
2021/04/05 09:56:32;;;;;;;11.07;3.28;;;10.70;39.70;;;;;;5015222;28;20498;-76
2021/04/05 09:59:08;;;;;;;12.55;3.30;;;10.80;39.80;;;;;;4997324;28;20038;-76
2021/04/05 10:01:35;;;;;;;8.65;3.13;;;10.80;40.00;;;;;;4997596;28;20053;-76
2021/04/05 10:04:07;;;;;;;11.45;3.28;;;10.70;39.50;;;;;;4997639;28;20030;-75
2021/04/05 10:06:35;;;;;;;7.30;2.92;;;10.70;38.90;;;;;;5015094;28;20479;-77
2021/04/05 10:09:07;;;;;;;9.50;3.17;;;10.60;39.10;;;;;;4997202;28;20077;-79
2021/04/05 10:11:40;;;;;;;9.27;3.03;;;10.50;38.10;;;;;;4997348;28;20018;-77
2021/04/05 10:14:10;;;;;;;11.15;2.85;;;10.50;37.80;;;;;;5014877;28;20037;-77
2021/04/05 10:16:38;;;;;;;12.98;3.78;;;10.50;37.50;;;;;;4997307;28;20056;-75
2021/04/05 10:19:12;;;;;;;8.13;3.08;;;10.50;37.50;;;;;;4997482;28;20049;-75
2021/04/05 10:21:47;;;;;;;13.32;2.78;;;10.40;37.60;;;;;;4997354;28;20479;-78
2021/04/05 10:24:13;;;;;;;12.25;3.38;;;10.40;38.00;;;;;;4997226;28;20538;-76
2021/04/05 10:26:42;;;;;;;10.52;3.47;;;10.60;38.40;;;;;;5013309;28;20042;-77
2021/04/05 10:29:11;;;;;;;6.05;2.70;;;10.70;38.20;;;;;;4997315;28;20018;-75
2021/04/05 10:31:38;;;;;;;8.20;2.92;;;10.70;38.20;;;;;;4996860;28;20034;-77
2021/04/05 10:34:07;;;;;;;9.20;2.95;;;10.80;38.10;;;;;;5014611;28;20037;-76
2021/04/05 10:37:15;;;;;;;10.52;2.80;;;10.70;37.60;;;;;;4996789;28;20364;-77
2021/04/05 10:39:50;;;;;;;10.20;3.42;;;10.80;37.50;;;;;;5016646;28;20033;-78
2021/04/05 10:42:20;;;;;;;;;;;10.90;37.00;;;;;;5004141;28;20025;-76
2021/04/05 10:44:48;;;;;;;13.55;3.40;;;10.70;36.60;;;;;;5014544;28;20063;-78
2021/04/05 10:47:21;;;;;;;10.77;2.75;;;10.70;36.80;;;;;;4996638;28;20026;-76
2021/04/05 10:49:50;;;;;;;13.75;3.55;;;10.90;36.70;;;;;;5014367;28;20030;-75
2021/04/05 10:52:23;;;;;;;11.77;3.95;;;10.90;36.60;;;;;;5014518;28;20022;-78
2021/04/05 10:54:53;;;;;;;11.50;3.30;;;11.00;36.60;;;;;;4996567;28;20034;-79
2021/04/05 10:57:33;;;;;;;10.57;4.00;;;11.00;36.50;;;;;;4996401;28;20511;-79
2021/04/05 11:00:05;;;;;;;12.82;4.07;;;11.00;36.80;;;;;;5014286;28;20034;-77
2021/04/05 11:02:37;;;;;;;13.02;3.50;;;11.00;36.90;;;;;;5029212;28;20026;-76
2021/04/05 11:05:15;;;;;;;11.93;4.10;;;11.10;37.40;;;;;;5029435;28;20133;-76
2021/04/05 11:07:42;;;;;;;13.57;4.22;;;11.20;37.60;;;;;;5014037;28;20077;-75
2021/04/05 11:10:16;;;;;;;12.68;4.07;;;11.20;37.50;;;;;;4996325;28;20036;-77
2021/04/05 11:12:45;;;;;;;11.10;3.75;;;11.20;37.70;;;;;;4996477;28;20026;-78
2021/04/05 11:15:14;;;;;;;9.90;3.67;;;11.30;37.70;;;;;;5028996;28;20491;-77
2021/04/05 11:17:46;;;;;;;10.40;3.90;;;11.40;37.70;;;;;;4996076;28;20037;-79
2021/04/05 11:20:17;;;;;;;9.60;3.67;;;11.50;37.90;;;;;;4996330;28;20025;-79
2021/04/05 11:22:44;;;;;;;13.95;4.07;;;11.60;37.40;;;;;;4996414;28;20502;-79
2021/04/05 11:25:19;;;;;;;20.02;4.30;;;11.70;37.10;;;;;;4995787;28;20490;-77
2021/04/05 11:27:52;;;;;;;9.57;3.63;;;11.80;36.70;;;;;;5013717;28;20026;-78
2021/04/05 11:30:27;;;;;;;14.23;4.63;;;11.80;36.60;;;;;;4995826;28;20036;-78
2021/04/05 11:32:54;;;;;;;12.90;3.65;;;11.90;36.80;;;;;;5024513;28;20495;-78
2021/04/05 11:35:30;;;;;;;14.10;3.85;;;12.00;36.50;;;;;;5015669;28;20030;-80
2021/04/05 11:38:01;;;;;;;12.65;4.05;;;12.00;36.30;;;;;;5015834;28;20025;-79
2021/04/05 11:40:29;;;;;;;10.63;4.00;;;12.20;36.30;;;;;;5015482;28;20494;-78
2021/04/05 11:42:57;;;;;;;11.20;2.60;;;12.20;36.10;;;;;;5033327;28;20053;-79
2021/04/05 11:45:39;;;;;;;16.88;2.70;;;12.40;34.10;;;;;;5033030;28;20040;-79
2021/04/05 11:48:11;;;;;;;7.00;2.65;;;12.40;31.50;;;;;;5015381;28;20215;-75
2021/04/05 11:50:43;;;;;;;18.50;3.80;;;12.40;30.10;;;;;;5033110;28;20064;-77
2021/04/05 11:53:17;;;;;;;7.13;2.45;;;12.70;29.30;;;;;;5015448;28;20025;-78
2021/04/05 11:55:43;;;;;;;8.65;2.53;;;12.80;28.30;;;;;;5015311;28;20509;-77
2021/04/05 11:58:14;;;;;;;9.20;2.65;;;12.60;27.60;;;;;;5015414;28;20498;-75
2021/04/05 12:00:58;;;;;;;9.60;3.15;;;12.50;27.10;;;;;;5033042;28;20018;-78
2021/04/05 12:03:35;;;;;;;7.53;2.85;;;12.20;26.70;;;;;;5015199;28;20033;-77
2021/04/05 12:06:00;;;;;;;12.32;2.25;;;12.20;26.90;;;;;;5015282;28;20044;-78
2021/04/05 12:08:47;;;;;;;9.13;2.60;;;12.10;26.80;;;;;;5015002;28;20046;-77
2021/04/05 12:11:15;;;;;;;7.00;2.33;;;12.20;26.80;;;;;;5014405;28;20076;-79
2021/04/05 12:13:54;;;;;;;8.02;2.47;;;12.40;27.00;;;;;;4998740;28;20037;-79
2021/04/05 12:16:23;;;;;;;5.43;2.22;;;12.50;26.90;;;;;;5015259;28;20059;-77
2021/04/05 12:18:54;;;;;;;8.80;2.88;;;12.60;26.70;;;;;;5015277;28;20539;-78
2021/04/05 12:21:29;;;;;;;12.38;2.72;;;12.70;26.80;;;;;;5015143;28;20025;-77
2021/04/05 12:23:58;;;;;;;11.07;2.70;;;12.60;26.90;;;;;;5032912;28;20033;-76
2021/04/05 12:26:33;;;;;;;23.10;3.35;;;12.70;27.30;;;;;;5014665;28;20509;-76
2021/04/05 12:29:06;;;;;;;8.35;2.67;;;12.60;27.60;;;;;;5014911;28;20041;-78
2021/04/05 12:31:35;;;;;;;8.57;3.17;;;12.70;27.80;;;;;;5014718;28;20029;-78
2021/04/05 12:34:10;;;;;;;12.82;3.17;;;12.70;28.00;;;;;;5032699;28;20118;-78
2021/04/05 12:36:38;;;;;;;13.05;3.45;;;12.70;28.20;;;;;;5014751;28;20017;-79
2021/04/05 12:39:07;;;;;;;8.65;3.70;;;12.50;28.40;;;;;;5015437;28;20120;-78
2021/04/05 12:41:41;;;;;;;12.13;3.83;;;12.40;28.70;;;;;;5015104;28;20095;-79
2021/04/05 12:44:28;;;;;;;14.05;4.50;;;12.30;29.10;;;;;;5014867;28;20037;-78
2021/04/05 12:46:56;;;;;;;15.10;5.25;;;12.10;29.70;;;;;;5000684;28;20045;-78
2021/04/05 12:49:27;;;;;;;13.80;4.88;;;11.90;30.20;;;;;;5032500;28;20029;-78
2021/04/05 12:52:05;;;;;;;14.27;5.30;;;11.70;31.50;;;;;;5032540;28;20026;-79
2021/04/05 12:54:35;;;;;;;15.73;5.45;;;11.50;31.40;;;;;;5014836;28;20029;-78
2021/04/05 12:57:03;;;;;;;12.55;5.18;;;11.40;32.00;;;;;;5032561;28;20025;-78
2021/04/05 12:59:29;;;;;;;12.07;4.88;;;11.30;32.50;;;;;;5032471;28;20559;-77
2021/04/05 13:02:05;;;;;;;12.85;4.97;;;11.10;33.20;;;;;;4998549;28;20030;-79
2021/04/05 13:04:34;;;;;;;14.10;5.32;;;11.20;34.00;;;;;;5014741;28;20064;-79
2021/04/05 13:07:10;;;;;;;12.88;5.18;;;11.20;33.90;;;;;;5032335;28;20026;-77
2021/04/05 13:09:40;;;;;;;10.75;4.45;;;11.10;34.20;;;;;;5032288;28;20033;-80
2021/04/05 13:12:28;;;;;;;11.95;4.90;;;11.00;34.40;;;;;;5032616;28;20032;-78
2021/04/05 13:15:03;;;;;;;10.25;4.50;;;11.10;34.60;;;;;;5032191;28;20075;-76
2021/04/05 13:17:34;;;;;;;18.23;5.85;;;11.20;34.70;;;;;;5014603;28;20029;-78
2021/04/05 13:20:09;;;;;;;12.70;5.03;;;11.10;34.90;;;;;;5032359;28;20117;-78
2021/04/05 13:22:36;;;;;;;19.98;6.57;;;11.10;35.10;;;;;;5017926;28;20033;-77
2021/04/05 13:25:24;;;;;;;13.13;5.78;;;11.20;35.10;;;;;;5035885;28;20064;-81